createdAt,value
2022-12-04T00:01:07.303Z,6.47
2022-12-04T00:03:58.678Z,7.47
2022-12-04T00:06:47.346Z,6.80
2022-12-04T00:09:36.402Z,6.20
2022-12-04T00:12:26.012Z,6.23
2022-12-04T00:15:25.334Z,6.13
2022-12-04T00:18:14.507Z,6.10
2022-12-04T00:21:06.040Z,6.00
2022-12-04T00:23:55.468Z,6.33
2022-12-04T00:26:44.232Z,6.80
2022-12-04T00:29:33.367Z,6.67
2022-12-04T00:32:23.458Z,6.87
2022-12-04T00:35:12.157Z,6.87
2022-12-04T00:38:00.826Z,5.93
2022-12-04T00:40:51.304Z,5.60
2022-12-04T00:43:40.291Z,5.73
2022-12-04T00:46:29.801Z,6.23
2022-12-04T00:49:19.902Z,6.23
2022-12-04T00:52:09.033Z,5.97
2022-12-04T00:54:57.809Z,6.13
2022-12-04T00:57:46.840Z,6.50
2022-12-04T01:00:36.151Z,6.80
2022-12-04T01:03:24.830Z,6.23
2022-12-04T01:06:22.895Z,6.70
2022-12-04T01:09:12.805Z,6.50
2022-12-04T01:12:01.942Z,5.43
2022-12-04T01:14:50.632Z,6.30
2022-12-04T01:17:39.400Z,6.30
2022-12-04T01:20:28.075Z,5.50
2022-12-04T01:23:18.857Z,6.20
2022-12-04T01:26:07.742Z,5.77
2022-12-04T01:28:56.611Z,5.53
2022-12-04T01:31:45.301Z,5.97
2022-12-04T01:34:34.003Z,6.80
2022-12-04T01:37:23.500Z,6.30
2022-12-04T01:40:18.007Z,6.10
2022-12-04T01:43:10.697Z,6.53
2022-12-04T01:46:01.134Z,5.57
2022-12-04T01:48:54.384Z,5.27
2022-12-04T01:51:48.243Z,5.17
2022-12-04T01:54:43.092Z,5.73
2022-12-04T01:57:35.824Z,6.03
2022-12-04T02:00:25.625Z,5.70
2022-12-04T02:03:15.031Z,5.83
2022-12-04T02:06:03.784Z,6.23
2022-12-04T02:08:55.794Z,5.97
2022-12-04T02:11:53.264Z,6.13
2022-12-04T02:14:53.739Z,6.77
2022-12-04T02:17:53.873Z,6.47
2022-12-04T02:20:49.797Z,6.23
2022-12-04T02:24:20.247Z,6.10
2022-12-04T02:27:21.006Z,5.80
2022-12-04T02:30:14.575Z,5.77
2022-12-04T02:33:09.037Z,5.43
2022-12-04T02:36:06.220Z,6.00
2022-12-04T02:39:05.775Z,5.10
2022-12-04T02:42:00.597Z,5.80
2022-12-04T02:44:54.534Z,5.50
2022-12-04T02:47:47.018Z,5.53
2022-12-04T02:50:39.056Z,5.70
2022-12-04T02:53:32.826Z,5.30
2022-12-04T02:56:27.228Z,5.60
2022-12-04T02:59:21.368Z,5.70
2022-12-04T03:02:15.713Z,5.37
2022-12-04T03:05:12.387Z,5.20
2022-12-04T03:08:06.125Z,5.17
2022-12-04T03:10:58.411Z,4.97
2022-12-04T03:13:51.047Z,5.27
2022-12-04T03:16:42.935Z,4.77
2022-12-04T03:19:41.016Z,4.63
2022-12-04T03:22:32.994Z,4.53
2022-12-04T03:25:23.668Z,4.83
2022-12-04T03:28:23.959Z,4.67
2022-12-04T03:31:12.973Z,4.20
2022-12-04T03:34:06.054Z,4.63
2022-12-04T03:36:59.105Z,4.40
2022-12-04T03:40:00.970Z,4.37
2022-12-04T03:42:55.951Z,4.73
2022-12-04T03:45:52.203Z,4.50
2022-12-04T03:48:46.528Z,4.07
2022-12-04T03:51:40.979Z,4.70
2022-12-04T03:54:34.827Z,4.80
2022-12-04T03:57:31.801Z,4.77
2022-12-04T04:00:23.020Z,4.47
2022-12-04T04:03:16.467Z,4.97
2022-12-04T04:06:11.855Z,4.60
2022-12-04T04:09:06.122Z,4.50
2022-12-04T04:12:01.524Z,4.90
2022-12-04T04:15:12.414Z,4.17
2022-12-04T04:18:20.357Z,4.70
2022-12-04T04:21:26.579Z,5.03
2022-12-04T04:24:30.468Z,4.13
2022-12-04T04:27:19.176Z,4.53
2022-12-04T04:30:11.175Z,3.90
2022-12-04T04:33:07.321Z,4.53
2022-12-04T04:36:02.639Z,4.40
2022-12-04T04:39:02.095Z,4.70
2022-12-04T04:41:57.150Z,4.70
2022-12-04T04:44:52.515Z,4.27
2022-12-04T04:47:48.734Z,4.43
2022-12-04T04:50:38.727Z,5.03
2022-12-04T04:53:33.181Z,4.17
2022-12-04T04:56:23.095Z,4.73
2022-12-04T04:59:12.175Z,4.27
2022-12-04T05:02:00.958Z,4.70
2022-12-04T05:04:51.429Z,4.70
2022-12-04T05:07:40.257Z,4.27
2022-12-04T05:10:28.925Z,4.43
2022-12-04T05:13:18.853Z,4.37
2022-12-04T05:16:14.477Z,4.53
2022-12-04T05:19:20.880Z,4.57
2022-12-04T05:22:12.364Z,4.90
2022-12-04T05:25:02.120Z,4.77
2022-12-04T05:27:50.825Z,4.63
2022-12-04T05:30:39.683Z,4.47
2022-12-04T05:33:28.492Z,4.80
2022-12-04T05:36:17.556Z,4.70
2022-12-04T05:39:07.648Z,5.10
2022-12-04T05:41:56.539Z,4.77
2022-12-04T05:44:45.214Z,3.70
2022-12-04T05:47:33.877Z,4.20
2022-12-04T05:50:22.548Z,4.43
2022-12-04T05:53:11.269Z,4.00
2022-12-04T05:56:03.580Z,3.80
2022-12-04T05:58:52.280Z,3.47
2022-12-04T06:01:41.748Z,3.57
2022-12-04T06:04:30.456Z,3.60
2022-12-04T06:07:19.103Z,3.63
2022-12-04T06:10:08.745Z,3.60
2022-12-04T06:12:59.659Z,3.63
2022-12-04T06:15:48.342Z,3.60
2022-12-04T06:18:37.370Z,3.00
2022-12-04T06:21:30.446Z,4.00
2022-12-04T06:24:22.776Z,3.63
2022-12-04T06:27:27.413Z,3.63
2022-12-04T06:30:18.398Z,3.20
2022-12-04T06:33:07.450Z,3.47
2022-12-04T06:36:00.938Z,3.27
2022-12-04T06:38:50.239Z,3.67
2022-12-04T06:41:38.861Z,3.27
2022-12-04T06:44:28.177Z,3.33
2022-12-04T06:47:18.207Z,3.20
2022-12-04T06:50:09.036Z,3.37
2022-12-04T06:52:57.619Z,3.40
2022-12-04T06:55:49.777Z,3.70
2022-12-04T06:58:38.820Z,3.23
2022-12-04T07:01:30.381Z,3.10
2022-12-04T07:04:20.541Z,3.63
2022-12-04T07:07:10.480Z,3.30
2022-12-04T07:09:59.147Z,3.33
2022-12-04T07:12:47.919Z,3.53
2022-12-04T07:15:37.718Z,3.87
2022-12-04T07:18:26.392Z,3.30
2022-12-04T07:21:19.518Z,3.80
2022-12-04T07:24:09.261Z,3.57
2022-12-04T07:26:57.894Z,3.80
2022-12-04T07:29:46.538Z,3.50
2022-12-04T07:32:35.339Z,3.27
2022-12-04T07:35:24.075Z,3.67
2022-12-04T07:38:14.369Z,3.40
2022-12-04T07:41:05.374Z,3.50
2022-12-04T07:43:55.208Z,3.20
2022-12-04T07:46:44.690Z,3.70
2022-12-04T07:49:33.494Z,3.40
2022-12-04T07:52:22.138Z,3.70
2022-12-04T07:55:12.905Z,3.60
2022-12-04T07:58:01.854Z,3.53
2022-12-04T08:00:50.649Z,3.70
2022-12-04T08:03:45.207Z,4.10
2022-12-04T08:06:36.624Z,3.87
2022-12-04T08:09:25.273Z,4.10
2022-12-04T08:12:15.739Z,3.87
2022-12-04T08:15:06.836Z,3.87
2022-12-04T08:17:55.956Z,3.80
2022-12-04T08:20:44.677Z,3.63
2022-12-04T08:23:33.598Z,3.80
2022-12-04T08:26:26.077Z,4.00
2022-12-04T08:29:16.206Z,3.67
2022-12-04T08:32:05.374Z,3.80
2022-12-04T08:34:55.921Z,3.70
2022-12-04T08:37:44.911Z,3.60
2022-12-04T08:40:33.626Z,3.50
2022-12-04T08:43:22.314Z,3.50
2022-12-04T08:46:15.800Z,3.90
2022-12-04T08:49:05.101Z,3.63
2022-12-04T08:51:53.754Z,3.90
2022-12-04T08:54:42.410Z,4.30
2022-12-04T08:57:31.071Z,3.87
2022-12-04T09:00:20.671Z,4.50
2022-12-04T09:03:13.007Z,4.37
2022-12-04T09:06:02.239Z,4.37
2022-12-04T09:08:55.258Z,3.83
2022-12-04T09:11:47.042Z,3.67
2022-12-04T09:14:35.699Z,3.57
2022-12-04T09:17:24.276Z,3.70
2022-12-04T09:20:15.043Z,4.20
2022-12-04T09:23:05.206Z,4.60
2022-12-04T09:25:55.274Z,3.90
2022-12-04T09:28:43.910Z,4.37
2022-12-04T09:31:33.830Z,4.37
2022-12-04T09:34:22.471Z,3.93
2022-12-04T09:37:12.927Z,4.67
2022-12-04T09:40:01.569Z,3.63
2022-12-04T09:42:57.532Z,4.20
2022-12-04T09:45:52.558Z,3.90
2022-12-04T09:48:44.292Z,3.53
2022-12-04T09:51:35.943Z,4.20
2022-12-04T09:54:33.074Z,3.60
2022-12-04T09:57:30.553Z,4.20
2022-12-04T10:00:21.480Z,4.53
2022-12-04T10:03:17.514Z,4.53
2022-12-04T10:06:14.821Z,4.33
2022-12-04T10:09:11.184Z,4.63
2022-12-04T10:12:16.146Z,4.80
2022-12-04T10:15:20.493Z,4.20
2022-12-04T10:18:36.263Z,4.27
2022-12-04T10:21:43.930Z,4.13
2022-12-04T10:24:43.363Z,4.13
2022-12-04T10:27:41.414Z,4.50
2022-12-04T10:30:32.850Z,4.73
2022-12-04T10:33:31.617Z,4.53
2022-12-04T10:36:23.960Z,4.53
2022-12-04T10:39:21.923Z,3.80
2022-12-04T10:42:24.650Z,4.10
2022-12-04T10:45:15.574Z,4.37
2022-12-04T10:48:04.324Z,4.10
2022-12-04T10:50:53.031Z,4.50
2022-12-04T10:53:42.323Z,4.13
2022-12-04T10:56:30.959Z,4.33
2022-12-04T10:59:19.696Z,3.83
2022-12-04T11:02:22.713Z,4.20
2022-12-04T11:05:28.169Z,4.40
2022-12-04T11:08:25.299Z,4.03
2022-12-04T11:11:16.286Z,4.60
2022-12-04T11:14:17.956Z,4.20
2022-12-04T11:17:08.064Z,4.17
2022-12-04T11:20:09.223Z,4.27
2022-12-04T11:22:59.748Z,4.33
2022-12-04T11:25:50.792Z,4.37
2022-12-04T11:28:51.895Z,4.60
2022-12-04T11:31:41.431Z,4.60
2022-12-04T11:34:37.079Z,4.80
2022-12-04T11:37:31.689Z,4.77
2022-12-04T11:40:21.894Z,4.33
2022-12-04T11:43:15.829Z,4.60
2022-12-04T11:46:07.510Z,5.30
2022-12-04T11:48:56.246Z,4.50
2022-12-04T11:51:54.528Z,4.50
2022-12-04T11:54:57.694Z,4.60
2022-12-04T11:57:57.250Z,4.30
2022-12-04T12:00:55.205Z,3.87
2022-12-04T12:03:57.968Z,4.00
2022-12-04T12:07:03.482Z,4.20
2022-12-04T12:10:02.865Z,4.53
2022-12-04T12:13:03.359Z,4.80
2022-12-04T12:16:03.868Z,3.87
2022-12-04T12:19:09.435Z,4.70
2022-12-04T12:22:09.146Z,4.70
2022-12-04T12:25:08.124Z,4.10
2022-12-04T12:28:14.909Z,4.10
2022-12-04T12:31:24.039Z,4.17
2022-12-04T12:34:19.246Z,4.40
2022-12-04T12:37:19.939Z,4.93
2022-12-04T12:40:17.262Z,4.60
2022-12-04T12:43:13.496Z,3.87
2022-12-04T12:46:07.970Z,4.17
2022-12-04T12:49:04.727Z,4.17
2022-12-04T12:51:58.497Z,4.03
2022-12-04T12:54:54.680Z,3.87
2022-12-04T12:57:50.788Z,4.07
2022-12-04T13:00:47.112Z,3.37
2022-12-04T13:03:46.594Z,3.87
2022-12-04T13:06:41.030Z,3.63
2022-12-04T13:09:34.009Z,3.67
2022-12-04T13:12:23.946Z,3.60
2022-12-04T13:15:17.589Z,3.43
2022-12-04T13:18:09.575Z,3.93
2022-12-04T13:21:02.028Z,3.50
2022-12-04T13:24:05.686Z,4.03
2022-12-04T13:27:01.370Z,3.57
2022-12-04T13:30:05.658Z,3.50
2022-12-04T13:33:42.300Z,3.63
2022-12-04T13:36:52.485Z,3.57
2022-12-04T13:40:29.642Z,3.53
2022-12-04T13:43:35.503Z,3.93
2022-12-04T13:46:34.121Z,3.53
2022-12-04T13:49:29.785Z,3.60
2022-12-04T13:52:26.027Z,3.27
2022-12-04T13:55:33.566Z,4.00
2022-12-04T13:58:30.616Z,3.70
2022-12-04T14:01:30.847Z,3.30
2022-12-04T14:04:29.869Z,3.70
2022-12-04T14:07:29.387Z,3.60
2022-12-04T14:10:29.962Z,3.90
2022-12-04T14:13:23.055Z,3.40
2022-12-04T14:16:23.302Z,3.67
2022-12-04T14:19:32.426Z,3.87
2022-12-04T14:22:31.168Z,3.30
2022-12-04T14:25:36.598Z,3.57
2022-12-04T14:28:42.693Z,3.23
2022-12-04T14:31:36.628Z,3.50
2022-12-04T14:34:31.824Z,4.03
2022-12-04T14:37:28.133Z,3.87
2022-12-04T14:40:24.267Z,4.13
2022-12-04T14:43:20.948Z,3.80
2022-12-04T14:46:21.953Z,3.60
2022-12-04T14:49:35.726Z,3.83
2022-12-04T14:52:32.160Z,3.53
2022-12-04T14:55:33.159Z,4.17
2022-12-04T14:58:34.691Z,3.37
2022-12-04T15:01:29.312Z,3.70
2022-12-04T15:04:28.981Z,3.60
2022-12-04T15:07:25.583Z,3.70
2022-12-04T15:10:40.759Z,3.30
2022-12-04T15:13:32.069Z,3.73
2022-12-04T15:16:22.876Z,4.33
2022-12-04T15:19:21.240Z,4.13
2022-12-04T15:22:21.068Z,3.80
2022-12-04T15:25:19.362Z,3.93
2022-12-04T15:28:15.756Z,3.77
2022-12-04T15:31:07.618Z,4.03
2022-12-04T15:34:00.244Z,3.97
2022-12-04T15:36:52.808Z,4.33
2022-12-04T15:39:42.078Z,4.63
2022-12-04T15:42:32.221Z,4.40
2022-12-04T15:45:31.915Z,4.93
2022-12-04T15:48:29.327Z,4.47
2022-12-04T15:51:21.983Z,5.10
2022-12-04T15:54:17.230Z,4.30
2022-12-04T15:57:08.759Z,4.57
2022-12-04T16:00:01.266Z,4.33
2022-12-04T16:02:50.711Z,4.47
2022-12-04T16:05:40.163Z,3.73
2022-12-04T16:08:33.119Z,4.10
2022-12-04T16:11:34.583Z,4.67
2022-12-04T16:14:23.232Z,4.27
2022-12-04T16:17:14.985Z,5.40
2022-12-04T16:20:08.205Z,4.67
2022-12-04T16:22:56.944Z,4.80
2022-12-04T16:25:47.310Z,4.90
2022-12-04T16:28:38.570Z,4.57
2022-12-04T16:31:28.016Z,5.30
2022-12-04T16:34:18.430Z,4.87
2022-12-04T16:37:13.717Z,5.13
2022-12-04T16:40:06.416Z,4.47
2022-12-04T16:42:55.162Z,5.27
2022-12-04T16:45:47.662Z,4.83
2022-12-04T16:48:37.671Z,4.93
2022-12-04T16:51:28.767Z,5.20
2022-12-04T16:54:17.760Z,4.93
2022-12-04T16:57:06.447Z,5.07
2022-12-04T16:59:55.461Z,5.27
2022-12-04T17:02:45.500Z,5.73
2022-12-04T17:05:35.868Z,4.83
2022-12-04T17:08:26.002Z,4.87
2022-12-04T17:11:17.054Z,4.73
2022-12-04T17:14:07.960Z,4.60
2022-12-04T17:16:58.711Z,5.40
2022-12-04T17:19:48.331Z,5.03
2022-12-04T17:22:37.077Z,4.53
2022-12-04T17:25:27.160Z,5.57
2022-12-04T17:28:15.862Z,6.17
2022-12-04T17:31:06.229Z,5.87
2022-12-04T17:33:55.945Z,5.90
2022-12-04T17:36:44.795Z,6.13
2022-12-04T17:39:33.825Z,5.73
2022-12-04T17:42:24.309Z,6.03
2022-12-04T17:45:14.431Z,5.60
2022-12-04T17:48:03.297Z,6.13
2022-12-04T17:51:04.750Z,6.60
2022-12-04T17:53:53.953Z,6.10
2022-12-04T17:56:47.787Z,5.77
2022-12-04T17:59:40.644Z,6.30
2022-12-04T18:02:29.348Z,6.20
2022-12-04T18:05:18.207Z,6.17
2022-12-04T18:08:07.122Z,6.17
2022-12-04T18:10:56.984Z,6.17
2022-12-04T18:13:45.733Z,6.17
2022-12-04T18:16:39.760Z,5.83
2022-12-04T18:19:30.430Z,5.93
2022-12-04T18:22:19.521Z,6.10
2022-12-04T18:25:10.492Z,5.77
2022-12-04T18:28:01.057Z,6.57
2022-12-04T18:30:49.860Z,6.23
2022-12-04T18:33:42.306Z,6.87
2022-12-04T18:36:32.581Z,7.47
2022-12-04T18:39:24.626Z,6.80
2022-12-04T18:42:13.311Z,5.93
2022-12-04T18:45:02.615Z,6.50
2022-12-04T18:47:51.399Z,6.63
2022-12-04T18:50:43.366Z,6.80
2022-12-04T18:53:32.093Z,6.43
2022-12-04T18:56:21.553Z,6.37
2022-12-04T18:59:14.258Z,6.50
2022-12-04T19:02:03.034Z,6.03
2022-12-04T19:04:51.916Z,6.87
2022-12-04T19:07:42.156Z,5.53
2022-12-04T19:10:32.049Z,6.77
2022-12-04T19:13:21.097Z,6.30
2022-12-04T19:16:13.453Z,5.83
2022-12-04T19:19:02.813Z,6.40
2022-12-04T19:21:51.459Z,7.53
2022-12-04T19:24:41.951Z,6.87
2022-12-04T19:27:30.609Z,5.83
2022-12-04T19:30:19.629Z,6.30
2022-12-04T19:33:08.345Z,5.90
2022-12-04T19:36:03.154Z,5.70
2022-12-04T19:38:53.391Z,5.83
2022-12-04T19:41:43.565Z,6.13
2022-12-04T19:44:49.486Z,6.10
2022-12-04T19:47:38.652Z,5.57
2022-12-04T19:50:27.466Z,6.03
2022-12-04T19:53:16.224Z,6.47
2022-12-04T19:56:07.467Z,5.47
2022-12-04T19:59:00.167Z,6.23
2022-12-04T20:01:49.210Z,5.80
2022-12-04T20:04:39.579Z,5.77
2022-12-04T20:07:30.499Z,6.70
2022-12-04T20:10:20.907Z,6.43
2022-12-04T20:13:09.609Z,5.73
2022-12-04T20:16:04.063Z,5.47
2022-12-04T20:18:54.899Z,5.80
2022-12-04T20:21:44.362Z,5.77
2022-12-04T20:24:33.085Z,5.80
2022-12-04T20:27:21.779Z,5.77
2022-12-04T20:30:11.667Z,6.53
2022-12-04T20:33:01.753Z,5.87
2022-12-04T20:35:50.512Z,5.50
2022-12-04T20:38:40.317Z,5.23
2022-12-04T20:41:31.373Z,5.63
2022-12-04T20:44:21.675Z,5.77
2022-12-04T20:47:10.439Z,5.67
2022-12-04T20:50:00.567Z,5.90
2022-12-04T20:52:49.292Z,5.70
2022-12-04T20:55:38.148Z,5.33
2022-12-04T20:58:26.794Z,5.37
2022-12-04T21:01:18.983Z,5.23
2022-12-04T21:04:08.384Z,5.17
2022-12-04T21:06:59.107Z,5.17
2022-12-04T21:09:47.729Z,5.47
2022-12-04T21:12:53.964Z,6.37
2022-12-04T21:16:00.251Z,4.90
2022-12-04T21:18:49.296Z,5.50
2022-12-04T21:21:38.768Z,5.67
2022-12-04T21:24:30.269Z,5.37
2022-12-04T21:27:21.278Z,5.87
2022-12-04T21:30:12.208Z,6.40
2022-12-04T21:33:00.921Z,6.20
2022-12-04T21:35:49.942Z,6.10
2022-12-04T21:38:41.038Z,5.40
2022-12-04T21:41:48.483Z,5.90
2022-12-04T21:44:37.379Z,5.50
2022-12-04T21:47:26.976Z,5.07
2022-12-04T21:50:15.589Z,5.57
2022-12-04T21:53:04.247Z,5.37
2022-12-04T21:55:57.170Z,4.93
2022-12-04T21:58:47.679Z,5.93
2022-12-04T22:01:36.528Z,5.80
2022-12-04T22:04:25.285Z,5.73
2022-12-04T22:07:13.955Z,5.03
2022-12-04T22:10:08.614Z,4.93
2022-12-04T22:12:59.218Z,5.33
2022-12-04T22:15:49.356Z,5.60
2022-12-04T22:18:38.525Z,5.33
2022-12-04T22:21:29.341Z,5.27
2022-12-04T22:24:18.242Z,5.03
2022-12-04T22:27:06.912Z,5.23
2022-12-04T22:29:55.685Z,5.70
2022-12-04T22:32:45.795Z,6.13
2022-12-04T22:35:34.783Z,5.03
2022-12-04T22:38:23.433Z,6.10
2022-12-04T22:41:15.456Z,5.97
2022-12-04T22:44:04.645Z,5.80
2022-12-04T22:46:53.405Z,5.07
2022-12-04T22:49:43.557Z,5.80
2022-12-04T22:52:32.661Z,5.23
2022-12-04T22:55:21.275Z,5.60
2022-12-04T22:58:09.978Z,5.33
2022-12-04T23:00:58.636Z,5.13
2022-12-04T23:03:48.587Z,5.40
2022-12-04T23:06:38.765Z,4.83
2022-12-04T23:09:27.918Z,5.00
2022-12-04T23:12:16.656Z,5.47
2022-12-04T23:15:06.317Z,5.37
2022-12-04T23:17:55.150Z,5.50
2022-12-04T23:20:43.884Z,5.23
2022-12-04T23:23:35.169Z,5.27
2022-12-04T23:26:26.552Z,5.53
2022-12-04T23:29:44.965Z,5.53
2022-12-04T23:32:24.622Z,4.63
2022-12-04T23:35:13.368Z,4.60
2022-12-04T23:38:35.431Z,4.80
2022-12-04T23:41:26.947Z,5.17
2022-12-04T23:44:15.678Z,5.43
2022-12-04T23:47:04.650Z,4.97
2022-12-04T23:49:53.338Z,4.87
2022-12-04T23:52:42.004Z,5.20
2022-12-04T23:55:34.519Z,4.93
2022-12-04T23:58:23.649Z,4.97
